Time;durP1;ratioP1;P1;durP2;ratioP2;P2;SDS_P1;SDS_P2;PMS_P1;PMS_P2;Temp;Humidity;BMP_temperature;BMP_pressure;BME280_temperature;BME280_humidity;BME280_pressure;Samples;Min_cycle;Max_cycle;Signal;HPM_P1;HPM_P2
2022/01/10 00:01:18;;;;;;;87.27;31.53;;;-2.00;99.90;;;;;;5040579;28;20231;-73
2022/01/10 00:04:08;;;;;;;117.80;30.80;;;-2.10;99.90;;;;;;5044505;28;20305;-71
2022/01/10 00:06:57;;;;;;;134.93;29.97;;;-2.20;99.90;;;;;;5043593;28;20247;-72
2022/01/10 00:09:47;;;;;;;102.90;30.83;;;-2.30;99.90;;;;;;5044591;28;20217;-72
2022/01/10 00:12:35;;;;;;;121.40;34.87;;;-2.30;99.90;;;;;;5054536;28;20246;-74
2022/01/10 00:15:24;;;;;;;86.87;31.47;;;-2.30;99.90;;;;;;5044176;28;20236;-74
2022/01/10 00:18:13;;;;;;;96.57;32.07;;;-2.10;99.90;;;;;;5036995;28;20212;-75
2022/01/10 00:21:02;;;;;;;112.20;28.93;;;-2.10;99.90;;;;;;5055446;28;20212;-77
2022/01/10 00:23:50;;;;;;;119.63;31.87;;;-2.20;99.90;;;;;;5054456;28;20224;-71
2022/01/10 00:26:40;;;;;;;112.67;30.83;;;-2.10;99.90;;;;;;5040716;28;20213;-71
2022/01/10 00:29:29;;;;;;;138.17;32.47;;;-2.10;99.90;;;;;;5054167;28;20223;-72
2022/01/10 00:32:17;;;;;;;99.10;33.60;;;-2.00;99.90;;;;;;5054461;28;20351;-72
2022/01/10 00:35:07;;;;;;;99.93;32.73;;;-1.70;99.90;;;;;;5053556;28;20711;-73
2022/01/10 00:37:55;;;;;;;99.37;33.57;;;-1.70;99.90;;;;;;5039311;28;20232;-74
2022/01/10 00:40:48;;;;;;;91.67;33.47;;;-1.60;99.90;;;;;;5057264;28;20219;-72
2022/01/10 00:43:45;;;;;;;89.00;30.70;;;-1.60;99.90;;;;;;5043935;28;20629;-73
2022/01/10 00:46:34;;;;;;;85.20;30.57;;;-1.60;99.90;;;;;;5053106;28;20725;-75
2022/01/10 00:49:23;;;;;;;107.37;29.97;;;-1.70;99.90;;;;;;5030830;28;20231;-73
2022/01/10 00:52:12;;;;;;;126.57;30.07;;;-1.80;99.90;;;;;;5056318;28;22515;-73
2022/01/10 00:55:00;;;;;;;85.47;29.83;;;-1.80;99.90;;;;;;5055059;28;20338;-75
2022/01/10 00:57:49;;;;;;;85.77;29.83;;;-1.70;99.90;;;;;;5047964;28;20349;-74
2022/01/10 01:00:39;;;;;;;89.77;31.87;;;-1.60;99.90;;;;;;5038433;28;20704;-74
2022/01/10 01:03:28;;;;;;;84.67;31.40;;;-1.50;99.90;;;;;;5034420;28;20721;-74
2022/01/10 01:06:18;;;;;;;85.37;33.20;;;-1.40;99.90;;;;;;5040761;28;20304;-72
2022/01/10 01:09:10;;;;;;;79.83;30.17;;;-1.30;99.90;;;;;;5041025;28;20891;-75
2022/01/10 01:15:18;;;;;;;106.77;30.90;;;-1.40;99.90;;;;;;5037825;28;20318;-74
2022/01/10 01:18:18;;;;;;;106.70;32.57;;;-1.30;99.90;;;;;;5052194;28;20347;-75
2022/01/10 01:24:15;;;;;;;84.30;28.50;;;-1.30;99.90;;;;;;5048607;28;20320;-75
2022/01/10 01:27:04;;;;;;;84.67;29.90;;;-1.30;99.90;;;;;;5040175;28;20977;-73
2022/01/10 01:29:53;;;;;;;92.73;28.30;;;-1.30;99.90;;;;;;5033452;28;20216;-74
2022/01/10 01:32:41;;;;;;;138.97;30.07;;;-1.40;99.90;;;;;;5047004;28;20225;-73
2022/01/10 01:35:34;;;;;;;84.30;28.90;;;-1.50;99.90;;;;;;5032318;28;20250;-74
2022/01/10 01:38:24;;;;;;;90.30;29.43;;;-1.50;99.90;;;;;;5037372;28;20227;-74
2022/01/10 01:41:23;;;;;;;88.43;29.53;;;-1.60;99.90;;;;;;5060447;28;20232;-73
2022/01/10 01:44:12;;;;;;;86.67;29.83;;;-1.50;99.90;;;;;;5055913;28;20227;-71
2022/01/10 01:47:01;;;;;;;72.43;28.53;;;-1.30;99.90;;;;;;5056072;28;20262;-74
2022/01/10 01:49:50;;;;;;;82.00;31.67;;;-1.30;99.90;;;;;;5046076;28;20235;-73
2022/01/10 01:52:41;;;;;;;73.80;29.13;;;-1.30;99.90;;;;;;5039549;28;20231;-73
2022/01/10 01:55:30;;;;;;;81.63;29.03;;;-1.30;99.90;;;;;;5053066;28;20657;-73
2022/01/10 01:58:19;;;;;;;79.20;27.97;;;-1.20;99.90;;;;;;5040344;28;20213;-72
2022/01/10 02:01:08;;;;;;;74.53;29.93;;;-1.20;99.90;;;;;;5053127;28;20220;-72
2022/01/10 02:03:57;;;;;;;97.17;28.97;;;-1.20;99.90;;;;;;5040195;28;21928;-72
2022/01/10 02:06:50;;;;;;;75.47;23.40;;;-1.20;99.90;;;;;;5047649;28;20216;-71
2022/01/10 02:09:40;;;;;;;89.77;28.97;;;-1.30;99.90;;;;;;5050298;28;20595;-72
2022/01/10 02:12:29;;;;;;;74.47;28.27;;;-1.40;99.90;;;;;;5047094;28;20228;-73
2022/01/10 02:15:30;;;;;;;67.13;27.07;;;-1.40;99.90;;;;;;5053295;28;20685;-72
2022/01/10 02:18:22;;;;;;;91.73;28.03;;;-1.30;99.90;;;;;;5040865;28;20228;-73
2022/01/10 02:21:15;;;;;;;76.00;26.43;;;-1.40;99.90;;;;;;5043479;28;20216;-74
2022/01/10 02:24:05;;;;;;;66.80;23.30;;;-1.30;99.90;;;;;;5043410;28;20220;-73
2022/01/10 02:26:54;;;;;;;66.30;25.63;;;-1.50;99.90;;;;;;5041223;28;20224;-74
2022/01/10 02:29:43;;;;;;;55.43;22.87;;;-1.40;99.90;;;;;;5050505;28;20584;-73
2022/01/10 02:32:34;;;;;;;60.27;24.87;;;-1.40;99.90;;;;;;5057106;28;20446;-75
2022/01/10 02:35:26;;;;;;;48.23;17.57;;;-1.30;99.90;;;;;;5040534;28;20224;-76
2022/01/10 02:38:16;;;;;;;51.93;20.70;;;-1.30;99.90;;;;;;5043158;28;20252;-73
2022/01/10 02:41:05;;;;;;;57.07;23.23;;;-1.40;99.90;;;;;;5050367;28;20312;-74
2022/01/10 02:43:55;;;;;;;52.30;20.13;;;-1.30;99.90;;;;;;5047278;28;20216;-73
2022/01/10 02:46:46;;;;;;;52.60;22.30;;;-1.40;99.90;;;;;;5041001;28;20691;-73
2022/01/10 02:49:47;;;;;;;55.00;21.93;;;-1.30;99.90;;;;;;5044566;28;20426;-73
2022/01/10 02:52:37;;;;;;;58.97;24.83;;;-1.20;99.90;;;;;;5042079;28;20245;-73
2022/01/10 02:55:27;;;;;;;55.57;24.27;;;-1.10;99.90;;;;;;5055301;28;20236;-75
2022/01/10 02:58:16;;;;;;;59.43;24.60;;;-1.10;99.90;;;;;;5032767;28;20239;-74
2022/01/10 03:01:05;;;;;;;58.70;24.40;;;-0.90;99.90;;;;;;5050634;28;20227;-74
2022/01/10 03:03:54;;;;;;;58.10;23.90;;;-0.80;99.90;;;;;;5042934;28;22023;-73
2022/01/10 03:06:44;;;;;;;54.50;23.60;;;-0.70;99.90;;;;;;5042076;28;20295;-73
2022/01/10 03:09:35;;;;;;;53.83;24.60;;;-0.70;99.90;;;;;;5045762;28;20435;-73
2022/01/10 03:12:28;;;;;;;52.50;25.23;;;-0.60;99.90;;;;;;5035256;28;20222;-73
2022/01/10 03:15:18;;;;;;;54.17;24.13;;;-0.60;99.90;;;;;;5044479;28;20237;-73
2022/01/10 03:18:08;;;;;;;51.67;24.50;;;-0.50;99.90;;;;;;5042552;28;20227;-72
2022/01/10 03:20:57;;;;;;;50.87;24.23;;;-0.40;99.90;;;;;;5041901;28;20225;-73
2022/01/10 03:23:45;;;;;;;55.03;24.80;;;-0.60;99.90;;;;;;5057103;28;20216;-72
2022/01/10 03:26:34;;;;;;;53.93;25.53;;;-0.60;99.90;;;;;;5048570;28;20640;-73
2022/01/10 03:29:26;;;;;;;56.53;24.57;;;-0.50;99.90;;;;;;5053419;28;20218;-73
2022/01/10 03:32:15;;;;;;;46.37;19.27;;;-0.60;99.90;;;;;;5056893;28;20309;-72
2022/01/10 03:35:04;;;;;;;50.60;20.60;;;-0.60;99.90;;;;;;5051306;28;20213;-71
2022/01/10 03:37:53;;;;;;;49.50;21.30;;;-0.70;99.90;;;;;;5042464;28;20228;-70
2022/01/10 03:40:44;;;;;;;51.93;22.03;;;-0.80;99.90;;;;;;5034210;28;20228;-73
2022/01/10 03:43:37;;;;;;;47.20;21.17;;;-0.90;99.90;;;;;;5043969;28;20600;-72
2022/01/10 03:46:28;;;;;;;44.43;19.53;;;-0.90;99.90;;;;;;5057354;28;20233;-72
2022/01/10 03:49:17;;;;;;;48.60;22.33;;;-0.90;99.90;;;;;;5035056;28;20220;-72
2022/01/10 03:52:06;;;;;;;45.47;20.77;;;-0.80;99.90;;;;;;5063750;28;20247;-71
2022/01/10 03:54:55;;;;;;;49.90;23.07;;;-0.70;99.90;;;;;;5053346;28;20238;-72
2022/01/10 03:57:44;;;;;;;51.50;20.60;;;-0.70;99.90;;;;;;5043179;28;20221;-72
2022/01/10 04:00:33;;;;;;;44.07;20.13;;;-0.60;99.90;;;;;;5051700;28;20225;-72
2022/01/10 04:03:23;;;;;;;46.27;21.17;;;-0.70;99.90;;;;;;5056285;28;20225;-72
2022/01/10 04:06:20;;;;;;;42.40;20.33;;;-0.50;99.90;;;;;;5041404;28;20226;-72
2022/01/10 04:09:09;;;;;;;42.77;19.73;;;-0.60;99.90;;;;;;5039938;28;20236;-74
2022/01/10 04:11:58;;;;;;;39.80;19.60;;;-0.60;99.90;;;;;;5040316;28;20246;-74
2022/01/10 04:14:47;;;;;;;42.53;19.00;;;-0.50;99.90;;;;;;5038428;28;20217;-73
2022/01/10 04:17:36;;;;;;;47.47;20.77;;;-0.40;99.90;;;;;;5044118;28;20217;-73
2022/01/10 04:20:26;;;;;;;42.33;18.40;;;-0.40;99.90;;;;;;5040406;28;20227;-72
2022/01/10 04:23:18;;;;;;;40.40;19.63;;;-0.50;99.90;;;;;;5039383;28;20496;-76
2022/01/10 04:26:06;;;;;;;40.13;18.90;;;-0.50;99.90;;;;;;5030070;28;20213;-74
2022/01/10 04:28:57;;;;;;;46.60;20.77;;;-0.60;99.90;;;;;;5038303;28;20224;-73
2022/01/10 04:31:47;;;;;;;43.40;19.43;;;-0.70;99.90;;;;;;5040410;28;20224;-74
2022/01/10 04:34:36;;;;;;;49.67;21.37;;;-0.50;99.90;;;;;;5048847;28;20245;-72
2022/01/10 04:37:26;;;;;;;45.13;21.63;;;-0.50;99.90;;;;;;5035592;28;20245;-74
2022/01/10 04:40:15;;;;;;;47.30;21.73;;;-0.40;99.90;;;;;;5032407;28;20240;-74
2022/01/10 04:43:07;;;;;;;44.80;20.97;;;-0.50;99.90;;;;;;5052211;28;20213;-74
2022/01/10 04:45:56;;;;;;;46.63;21.67;;;-0.30;99.90;;;;;;5040760;28;20786;-73
2022/01/10 04:48:45;;;;;;;43.87;21.13;;;-0.30;99.90;;;;;;5051695;28;20220;-72
2022/01/10 04:51:34;;;;;;;45.30;21.77;;;-0.20;99.90;;;;;;5035050;28;20231;-73
2022/01/10 04:54:24;;;;;;;46.07;21.27;;;-0.20;99.90;;;;;;5053510;28;20245;-73
2022/01/10 04:57:13;;;;;;;52.27;22.67;;;-0.20;99.90;;;;;;5034709;28;20579;-73
2022/01/10 05:00:02;;;;;;;42.43;20.90;;;-0.20;99.90;;;;;;5051501;28;20231;-72
2022/01/10 05:02:52;;;;;;;47.93;20.47;;;-0.20;99.90;;;;;;5039991;28;20762;-74
2022/01/10 05:05:41;;;;;;;50.67;22.43;;;-0.10;99.90;;;;;;5055370;28;20733;-73
2022/01/10 05:08:30;;;;;;;48.07;21.83;;;-0.10;99.90;;;;;;5049730;28;20225;-73
2022/01/10 05:11:21;;;;;;;49.47;21.87;;;-0.10;99.90;;;;;;5040862;28;20775;-73
2022/01/10 05:14:10;;;;;;;50.10;23.17;;;-0.10;99.90;;;;;;5046800;28;20294;-72
2022/01/10 05:16:59;;;;;;;47.13;21.47;;;-0.10;99.90;;;;;;5033110;28;20246;-72
2022/01/10 05:19:48;;;;;;;56.23;23.23;;;-0.10;99.90;;;;;;5039339;28;20219;-72
2022/01/10 05:22:37;;;;;;;53.47;23.13;;;-0.30;99.90;;;;;;5038647;28;20241;-73
2022/01/10 05:25:27;;;;;;;53.03;23.30;;;-0.20;99.90;;;;;;5052869;28;20230;-72
2022/01/10 05:28:19;;;;;;;52.67;23.63;;;-0.20;99.90;;;;;;5044915;28;20230;-73
2022/01/10 05:31:11;;;;;;;48.63;21.57;;;-0.10;99.90;;;;;;5047892;28;20266;-74
2022/01/10 05:34:20;;;;;;;54.83;23.73;;;-0.20;99.90;;;;;;5052938;28;20283;-72
2022/01/10 05:37:09;;;;;;;46.37;20.20;;;-0.20;99.90;;;;;;5049397;28;20242;-73
2022/01/10 05:39:58;;;;;;;43.93;19.77;;;-0.30;99.90;;;;;;5052108;28;20703;-73
2022/01/10 05:42:47;;;;;;;55.40;22.70;;;-0.30;99.90;;;;;;5037235;28;20217;-74
2022/01/10 05:45:37;;;;;;;54.53;22.13;;;-0.40;99.90;;;;;;5037586;28;20232;-71
2022/01/10 05:48:28;;;;;;;61.80;26.30;;;-0.40;99.90;;;;;;5038620;28;20303;-74
2022/01/10 05:51:21;;;;;;;65.07;27.50;;;-0.40;99.90;;;;;;5052531;28;20225;-73
2022/01/10 05:54:17;;;;;;;68.17;24.00;;;-0.40;99.90;;;;;;5038497;28;20229;-72
2022/01/10 05:57:07;;;;;;;59.83;26.53;;;-0.30;99.90;;;;;;5053986;28;20217;-72
2022/01/10 05:59:59;;;;;;;58.13;23.37;;;-0.40;99.90;;;;;;5034692;28;20229;-72
2022/01/10 06:02:50;;;;;;;64.13;26.27;;;-0.40;99.90;;;;;;5033577;28;20623;-73
2022/01/10 06:05:46;;;;;;;75.77;27.53;;;-0.30;99.90;;;;;;5039217;28;20217;-73
2022/01/10 06:08:35;;;;;;;69.93;27.47;;;-0.20;99.90;;;;;;5051417;28;20250;-72
2022/01/10 06:11:24;;;;;;;70.87;27.70;;;-0.30;99.90;;;;;;5036762;28;20242;-73
2022/01/10 06:14:14;;;;;;;72.60;28.90;;;-0.30;99.90;;;;;;5039808;28;20595;-72
2022/01/10 06:17:02;;;;;;;77.03;29.63;;;-0.40;99.90;;;;;;5038274;28;20218;-75
2022/01/10 06:19:52;;;;;;;71.07;26.80;;;-0.50;99.90;;;;;;5041338;28;20754;-73
2022/01/10 06:22:41;;;;;;;78.10;29.80;;;-0.50;99.90;;;;;;5053458;28;20220;-70
2022/01/10 06:25:33;;;;;;;73.80;27.77;;;-0.40;99.90;;;;;;5038344;28;20497;-72
2022/01/10 06:28:22;;;;;;;72.03;30.03;;;-0.40;99.90;;;;;;5040756;28;20255;-68
2022/01/10 06:31:15;;;;;;;68.73;28.73;;;-0.50;99.90;;;;;;5054143;28;20242;-71
2022/01/10 06:34:15;;;;;;;82.17;30.87;;;-0.50;99.90;;;;;;5047460;28;20645;-70
2022/01/10 06:37:06;;;;;;;79.30;30.50;;;-0.40;99.90;;;;;;5044230;28;20247;-70
2022/01/10 06:40:01;;;;;;;72.70;28.83;;;-0.30;99.90;;;;;;5053416;28;20223;-72
2022/01/10 06:42:51;;;;;;;77.50;30.17;;;-0.30;99.90;;;;;;5044205;28;20302;-71
2022/01/10 06:45:42;;;;;;;80.10;29.67;;;-0.20;99.90;;;;;;5041442;28;20227;-72
2022/01/10 06:48:30;;;;;;;75.60;30.60;;;-0.30;99.90;;;;;;5043696;28;20747;-72
2022/01/10 06:51:19;;;;;;;71.70;28.00;;;-0.30;99.90;;;;;;5056788;28;20226;-74
2022/01/10 06:54:11;;;;;;;72.23;30.17;;;-0.40;99.90;;;;;;5054899;28;20601;-75
2022/01/10 06:57:00;;;;;;;79.17;32.43;;;-0.40;99.90;;;;;;5040298;28;20311;-74
2022/01/10 06:59:52;;;;;;;78.67;31.87;;;-0.40;99.90;;;;;;5046737;28;20228;-72
2022/01/10 07:02:43;;;;;;;81.70;31.37;;;-0.30;99.90;;;;;;5040830;28;20219;-72
2022/01/10 07:05:32;;;;;;;75.20;32.00;;;-0.40;99.90;;;;;;5042285;28;20219;-73
2022/01/10 07:08:27;;;;;;;78.87;29.83;;;-0.30;99.90;;;;;;5048433;28;20222;-72
2022/01/10 07:11:22;;;;;;;76.93;28.30;;;-0.20;99.90;;;;;;5039335;28;20226;-73
2022/01/10 07:14:12;;;;;;;79.90;30.60;;;-0.20;99.90;;;;;;5046002;28;20275;-72
2022/01/10 07:17:02;;;;;;;79.30;32.17;;;-0.20;99.90;;;;;;5043283;28;20305;-72
2022/01/10 07:19:50;;;;;;;87.77;34.87;;;-0.30;99.90;;;;;;5042162;28;20322;-73
2022/01/10 07:22:45;;;;;;;82.60;33.03;;;-0.30;99.90;;;;;;5045991;28;20635;-71
2022/01/10 07:25:35;;;;;;;82.37;30.03;;;-0.20;99.90;;;;;;5053653;28;20897;-74
2022/01/10 07:28:25;;;;;;;82.47;31.47;;;-0.20;99.90;;;;;;5044391;28;20230;-73
2022/01/10 07:31:13;;;;;;;93.90;32.47;;;-0.20;99.90;;;;;;5054114;28;20726;-73
2022/01/10 07:34:02;;;;;;;92.73;33.90;;;-0.20;99.90;;;;;;5041840;28;20226;-73
2022/01/10 07:36:51;;;;;;;78.07;31.47;;;-0.20;99.90;;;;;;5047705;28;20316;-70
2022/01/10 07:39:40;;;;;;;84.10;32.23;;;-0.30;99.90;;;;;;5058484;28;20226;-70
2022/01/10 07:42:29;;;;;;;88.40;34.93;;;-0.30;99.90;;;;;;5058865;28;20229;-69
2022/01/10 07:45:35;;;;;;;86.57;34.97;;;-0.30;99.90;;;;;;5042778;28;20268;-71
2022/01/10 07:48:24;;;;;;;82.03;31.67;;;-0.30;99.90;;;;;;5043415;28;20222;-71
2022/01/10 07:51:13;;;;;;;78.90;33.60;;;-0.20;99.90;;;;;;5053078;28;20222;-72
2022/01/10 07:54:02;;;;;;;89.10;34.83;;;-0.10;99.90;;;;;;5042326;28;20245;-73
2022/01/10 07:56:51;;;;;;;78.00;31.90;;;-0.20;99.90;;;;;;5042287;28;20225;-73
2022/01/10 07:59:40;;;;;;;79.80;31.80;;;-0.20;99.90;;;;;;5056925;28;20222;-71
2022/01/10 08:02:31;;;;;;;84.27;35.27;;;-0.20;99.90;;;;;;5052620;28;20715;-75
2022/01/10 08:05:20;;;;;;;78.60;31.73;;;-0.10;99.90;;;;;;5044288;28;20254;-74
2022/01/10 08:08:08;;;;;;;67.10;29.10;;;-0.10;99.90;;;;;;5035634;28;20233;-74
2022/01/10 08:10:57;;;;;;;79.97;32.87;;;-0.10;99.90;;;;;;5034134;28;20226;-74
2022/01/10 08:13:46;;;;;;;79.00;33.00;;;-0.20;99.90;;;;;;5051639;28;20224;-71
2022/01/10 08:16:35;;;;;;;77.37;31.40;;;-0.20;99.90;;;;;;5041053;28;20254;-72
2022/01/10 08:19:30;;;;;;;75.63;29.87;;;-0.30;99.90;;;;;;5040428;28;20877;-72
2022/01/10 08:22:19;;;;;;;76.30;30.47;;;-0.30;99.90;;;;;;5053444;28;20229;-73
2022/01/10 08:25:09;;;;;;;68.90;31.27;;;-0.20;99.90;;;;;;5054137;28;20236;-74
2022/01/10 08:27:57;;;;;;;61.60;23.67;;;-0.20;99.90;;;;;;5050081;28;20310;-72
2022/01/10 08:30:46;;;;;;;69.53;31.37;;;-0.30;99.90;;;;;;5052398;28;20217;-71
2022/01/10 08:33:34;;;;;;;69.60;28.50;;;-0.20;99.90;;;;;;5049652;28;20225;-70
2022/01/10 08:36:27;;;;;;;61.07;26.37;;;-0.20;99.90;;;;;;5038456;28;20629;-71
2022/01/10 08:39:16;;;;;;;63.53;29.13;;;-0.40;99.90;;;;;;5054940;28;20887;-70
2022/01/10 08:42:05;;;;;;;58.10;25.90;;;-0.30;99.90;;;;;;5034602;28;20233;-69
2022/01/10 08:44:54;;;;;;;67.47;29.30;;;-0.20;99.90;;;;;;5052525;28;20225;-71
2022/01/10 08:47:42;;;;;;;62.77;27.27;;;-0.30;99.90;;;;;;5039737;28;20221;-69
2022/01/10 08:50:31;;;;;;;53.83;24.00;;;-0.30;99.90;;;;;;5054462;28;20222;-70
2022/01/10 08:53:21;;;;;;;56.93;24.03;;;-0.30;99.90;;;;;;5051782;28;20244;-71
2022/01/10 08:56:13;;;;;;;66.03;28.53;;;-0.30;99.90;;;;;;5052556;28;20789;-69
2022/01/10 08:59:03;;;;;;;48.70;22.13;;;-0.30;99.90;;;;;;5040716;28;20220;-69
2022/01/10 09:01:55;;;;;;;64.83;27.87;;;-0.30;99.90;;;;;;5051057;28;20236;-71
2022/01/10 09:04:44;;;;;;;54.07;25.93;;;-0.40;99.90;;;;;;5035911;28;20228;-69
2022/01/10 09:07:33;;;;;;;59.87;24.67;;;-0.30;99.90;;;;;;5039165;28;20280;-69
2022/01/10 09:10:23;;;;;;;57.70;26.43;;;-0.20;99.90;;;;;;5053344;28;20855;-72
2022/01/10 09:13:12;;;;;;;60.67;26.10;;;-0.20;99.90;;;;;;5041056;28;20233;-72
2022/01/10 09:16:02;;;;;;;60.40;25.40;;;0.00;99.90;;;;;;5038431;28;20597;-70
2022/01/10 09:18:51;;;;;;;54.30;23.43;;;-0.10;99.90;;;;;;5045467;28;20273;-70
2022/01/10 09:21:40;;;;;;;54.43;24.00;;;-0.20;99.90;;;;;;5040648;28;20220;-70
2022/01/10 09:24:29;;;;;;;61.23;25.67;;;-0.20;99.90;;;;;;5050643;28;20231;-70
2022/01/10 09:27:19;;;;;;;62.60;26.37;;;-0.20;99.90;;;;;;5040353;28;20733;-72
2022/01/10 09:30:09;;;;;;;54.63;24.77;;;-0.10;99.90;;;;;;5038702;28;20225;-70
2022/01/10 09:32:58;;;;;;;54.87;25.27;;;0.00;99.90;;;;;;5055773;28;20237;-71
2022/01/10 09:35:46;;;;;;;53.97;25.27;;;0.00;99.90;;;;;;5053778;28;20721;-76
2022/01/10 09:38:35;;;;;;;53.73;20.03;;;0.10;99.90;;;;;;5038653;28;20228;-70
2022/01/10 09:41:25;;;;;;;59.00;25.33;;;0.20;99.90;;;;;;5042660;28;20232;-74
2022/01/10 09:44:18;;;;;;;51.13;24.33;;;0.10;99.90;;;;;;5039684;28;20314;-74
2022/01/10 09:47:06;;;;;;;40.93;15.97;;;0.20;99.90;;;;;;5048247;28;20224;-73
2022/01/10 09:49:55;;;;;;;52.70;21.93;;;0.20;99.90;;;;;;5041736;28;20240;-71
2022/01/10 09:52:46;;;;;;;49.50;19.67;;;0.20;99.90;;;;;;5056739;28;20258;-69
2022/01/10 09:55:35;;;;;;;48.60;18.63;;;0.20;99.90;;;;;;5044263;28;20239;-70
2022/01/10 09:58:24;;;;;;;48.73;19.60;;;0.10;99.90;;;;;;5051054;28;20218;-70
2022/01/10 10:01:16;;;;;;;50.27;23.40;;;0.00;99.90;;;;;;5055806;28;20214;-71
2022/01/10 10:04:06;;;;;;;51.07;22.70;;;0.10;99.90;;;;;;5047201;28;20234;-70
2022/01/10 10:06:55;;;;;;;53.87;23.33;;;0.10;99.90;;;;;;5045608;28;20213;-70
2022/01/10 10:09:46;;;;;;;49.40;20.43;;;0.00;99.90;;;;;;5058099;28;20235;-71
2022/01/10 10:12:35;;;;;;;48.30;21.73;;;0.00;99.90;;;;;;5056447;28;20230;-70
2022/01/10 10:15:30;;;;;;;45.20;18.63;;;0.10;99.90;;;;;;5043788;28;20744;-70
2022/01/10 10:18:21;;;;;;;47.77;19.80;;;0.10;99.90;;;;;;5041033;28;20260;-69
2022/01/10 10:21:12;;;;;;;35.77;13.00;;;0.00;99.90;;;;;;5041834;28;20718;-70
2022/01/10 10:24:03;;;;;;;50.43;20.67;;;0.10;99.90;;;;;;5059288;28;20309;-70
2022/01/10 10:26:52;;;;;;;42.60;19.70;;;0.20;99.90;;;;;;5046320;28;20317;-68
2022/01/10 10:29:42;;;;;;;38.67;17.70;;;0.10;99.90;;;;;;5057871;28;20235;-74
2022/01/10 10:32:31;;;;;;;38.60;17.73;;;0.20;99.90;;;;;;5059158;28;20230;-68
2022/01/10 10:35:21;;;;;;;48.57;19.73;;;0.10;99.90;;;;;;5059278;28;20225;-69
2022/01/10 10:38:10;;;;;;;38.10;16.53;;;0.30;99.90;;;;;;5042620;28;20682;-70
2022/01/10 10:41:01;;;;;;;40.43;19.77;;;0.20;99.90;;;;;;5042663;28;20221;-71
2022/01/10 10:43:51;;;;;;;40.57;18.87;;;0.30;99.90;;;;;;5059107;28;20226;-70
2022/01/10 10:46:41;;;;;;;36.70;16.33;;;0.60;99.90;;;;;;5049837;28;20222;-70
2022/01/10 10:49:34;;;;;;;36.93;17.27;;;0.70;99.90;;;;;;5057862;28;20227;-71
2022/01/10 10:52:23;;;;;;;31.20;14.70;;;0.90;99.90;;;;;;5058204;28;20220;-69
2022/01/10 10:55:15;;;;;;;34.30;16.13;;;0.70;99.90;;;;;;5046036;28;20719;-71
2022/01/10 10:58:04;;;;;;;29.17;13.30;;;0.70;99.90;;;;;;5039395;28;20227;-71
2022/01/10 11:00:53;;;;;;;29.33;13.77;;;0.50;99.90;;;;;;5059120;28;20219;-72
2022/01/10 11:03:43;;;;;;;25.90;10.47;;;0.60;99.90;;;;;;5057125;28;20224;-71
2022/01/10 11:06:32;;;;;;;24.80;11.77;;;0.60;99.90;;;;;;5042446;28;20483;-72
2022/01/10 11:09:22;;;;;;;22.77;12.00;;;0.60;99.90;;;;;;5051445;28;20213;-75
2022/01/10 11:12:13;;;;;;;26.40;11.30;;;0.70;99.90;;;;;;5056617;28;20217;-75
2022/01/10 11:15:03;;;;;;;23.53;12.13;;;0.80;99.90;;;;;;5042626;28;20227;-72
2022/01/10 11:17:55;;;;;;;21.10;10.40;;;0.80;99.90;;;;;;5041448;28;20224;-72
2022/01/10 11:20:51;;;;;;;22.10;10.37;;;0.70;99.90;;;;;;5053632;28;20255;-71
2022/01/10 11:23:56;;;;;;;20.50;9.43;;;0.70;99.90;;;;;;5055855;28;20210;-71
2022/01/10 11:26:51;;;;;;;11.47;5.10;;;0.60;99.90;;;;;;5052318;28;20266;-71
2022/01/10 11:29:43;;;;;;;24.00;10.93;;;0.40;99.90;;;;;;5058378;28;20220;-71
2022/01/10 11:32:56;;;;;;;22.67;10.93;;;0.50;99.90;;;;;;5051330;28;20208;-72
2022/01/10 11:36:07;;;;;;;22.87;10.83;;;0.40;99.90;;;;;;5061278;28;20252;-73
2022/01/10 11:38:57;;;;;;;22.80;11.00;;;0.50;99.90;;;;;;5050570;28;20220;-69
2022/01/10 11:41:46;;;;;;;21.50;11.23;;;0.40;99.90;;;;;;5057100;28;20743;-72
2022/01/10 11:44:38;;;;;;;24.50;11.50;;;0.50;99.90;;;;;;5041733;28;20230;-71
2022/01/10 11:47:27;;;;;;;22.53;11.13;;;0.60;99.90;;;;;;5055395;28;20219;-72
2022/01/10 11:50:26;;;;;;;19.43;10.07;;;0.60;99.90;;;;;;5060935;28;20229;-71
2022/01/10 11:53:16;;;;;;;22.73;11.77;;;0.60;99.90;;;;;;5061547;28;20428;-70
2022/01/10 11:56:18;;;;;;;22.87;10.27;;;0.60;99.90;;;;;;5046424;28;20238;-72
2022/01/10 11:59:12;;;;;;;22.17;10.63;;;0.70;99.90;;;;;;5058097;28;20220;-72
2022/01/10 12:02:04;;;;;;;18.47;10.13;;;0.70;99.90;;;;;;5056833;28;20230;-74
2022/01/10 12:04:57;;;;;;;24.30;11.63;;;0.80;99.90;;;;;;5064508;28;20874;-70
2022/01/10 12:07:46;;;;;;;23.33;11.33;;;0.80;99.90;;;;;;5054699;28;20219;-69
2022/01/10 12:10:48;;;;;;;22.50;11.07;;;1.00;99.90;;;;;;5056326;28;20699;-68
2022/01/10 12:13:37;;;;;;;21.33;9.77;;;1.00;99.90;;;;;;5060306;28;20222;-69
2022/01/10 12:16:26;;;;;;;20.93;10.70;;;0.90;99.90;;;;;;5059435;28;20227;-68
2022/01/10 12:19:17;;;;;;;19.63;10.63;;;0.90;99.90;;;;;;5055645;28;20220;-71
2022/01/10 12:22:06;;;;;;;20.63;10.63;;;1.00;99.90;;;;;;5043694;28;20221;-71
2022/01/10 12:24:55;;;;;;;17.80;9.27;;;1.00;99.90;;;;;;5047025;28;20299;-65
2022/01/10 12:27:45;;;;;;;18.43;9.97;;;1.00;99.90;;;;;;5048316;28;20273;-71
2022/01/10 12:30:38;;;;;;;18.83;9.53;;;1.00;99.90;;;;;;5051825;28;20223;-71
2022/01/10 12:33:26;;;;;;;17.63;8.50;;;1.00;99.90;;;;;;5056615;28;20669;-71
2022/01/10 12:36:16;;;;;;;15.73;8.03;;;1.00;99.90;;;;;;5052250;28;20242;-71
2022/01/10 12:39:09;;;;;;;20.43;9.03;;;1.00;99.90;;;;;;5055052;28;20228;-71
2022/01/10 12:42:00;;;;;;;18.53;8.23;;;1.00;99.90;;;;;;5054911;28;20229;-71
2022/01/10 12:44:50;;;;;;;16.93;8.03;;;1.00;99.90;;;;;;5055322;28;20224;-70
2022/01/10 12:47:44;;;;;;;14.83;7.93;;;1.00;99.90;;;;;;5059281;28;20712;-71
2022/01/10 12:50:35;;;;;;;16.17;8.63;;;0.90;99.90;;;;;;5052262;28;20693;-71
2022/01/10 12:53:26;;;;;;;14.83;8.17;;;0.90;99.90;;;;;;5042926;28;20235;-71
2022/01/10 12:56:17;;;;;;;13.90;8.10;;;1.00;99.90;;;;;;5053081;28;20247;-71
2022/01/10 12:59:05;;;;;;;13.10;6.47;;;1.00;99.90;;;;;;5051460;28;20252;-71
2022/01/10 13:01:55;;;;;;;14.20;7.90;;;1.00;99.90;;;;;;5051100;28;20777;-71
2022/01/10 13:04:44;;;;;;;16.63;8.33;;;1.00;99.90;;;;;;5039259;28;20223;-70
2022/01/10 13:07:36;;;;;;;15.27;8.30;;;1.00;99.90;;;;;;5055952;28;20305;-71
2022/01/10 13:10:32;;;;;;;19.33;9.47;;;1.00;99.90;;;;;;5052872;28;20231;-70
2022/01/10 13:13:23;;;;;;;19.13;9.77;;;1.10;99.90;;;;;;5055495;28;20242;-70
2022/01/10 13:16:23;;;;;;;20.37;9.93;;;1.00;99.90;;;;;;5041751;28;20254;-70
2022/01/10 13:19:14;;;;;;;18.47;9.60;;;1.10;99.90;;;;;;5054503;28;20238;-70
2022/01/10 13:22:07;;;;;;;21.80;11.93;;;1.00;99.90;;;;;;5044035;28;20223;-72
2022/01/10 13:24:57;;;;;;;21.70;11.77;;;1.00;99.90;;;;;;5042225;28;20231;-70
2022/01/10 13:27:51;;;;;;;24.47;11.50;;;1.00;99.90;;;;;;5038419;28;20229;-70
2022/01/10 13:30:50;;;;;;;21.10;11.10;;;1.10;99.90;;;;;;5052732;28;20254;-69
2022/01/10 13:33:44;;;;;;;22.93;13.40;;;1.00;99.90;;;;;;5054767;28;20232;-71
2022/01/10 13:36:43;;;;;;;26.20;13.13;;;1.00;99.90;;;;;;5049088;28;20233;-71
2022/01/10 13:39:31;;;;;;;26.50;13.77;;;1.10;99.90;;;;;;5038340;28;21023;-71
2022/01/10 13:42:25;;;;;;;26.40;13.67;;;1.10;99.90;;;;;;5042037;28;20223;-69
2022/01/10 13:45:17;;;;;;;28.53;15.13;;;1.10;99.90;;;;;;5043807;28;20235;-71
2022/01/10 13:48:08;;;;;;;27.70;13.10;;;1.10;99.90;;;;;;5053823;28;20340;-72
2022/01/10 13:50:59;;;;;;;28.13;15.03;;;1.10;99.90;;;;;;5052339;28;20361;-67
2022/01/10 13:53:50;;;;;;;28.37;14.57;;;1.10;99.90;;;;;;5058595;28;20228;-68
2022/01/10 13:56:44;;;;;;;27.17;14.10;;;1.10;99.90;;;;;;5055459;28;20222;-69
2022/01/10 13:59:33;;;;;;;27.37;13.80;;;1.10;99.90;;;;;;5037193;28;20232;-69
2022/01/10 14:02:23;;;;;;;27.47;14.30;;;1.10;99.90;;;;;;5051486;28;20221;-68
2022/01/10 14:05:23;;;;;;;26.07;12.40;;;1.00;99.90;;;;;;5050933;28;20219;-71
2022/01/10 14:08:14;;;;;;;24.93;12.67;;;1.00;99.90;;;;;;5051651;28;20696;-69
2022/01/10 14:11:04;;;;;;;24.77;14.10;;;1.00;99.90;;;;;;5039711;28;20232;-71
2022/01/10 14:13:54;;;;;;;24.90;13.03;;;1.00;99.90;;;;;;5041981;28;20224;-69
2022/01/10 14:16:48;;;;;;;24.47;14.00;;;1.00;99.90;;;;;;5039435;28;20236;-69
2022/01/10 14:19:38;;;;;;;26.37;13.20;;;1.00;99.90;;;;;;5051273;28;20212;-70
2022/01/10 14:22:27;;;;;;;26.43;13.87;;;1.00;99.90;;;;;;5039648;28;20221;-70
2022/01/10 14:25:17;;;;;;;25.67;13.53;;;1.00;99.90;;;;;;5038280;28;20229;-68
2022/01/10 14:28:06;;;;;;;24.80;14.07;;;0.90;99.90;;;;;;5049722;28;20265;-69
2022/01/10 14:30:57;;;;;;;25.87;13.10;;;0.90;99.90;;;;;;5052965;28;20239;-70
2022/01/10 14:33:46;;;;;;;28.50;13.30;;;0.90;99.90;;;;;;5054205;28;20362;-70
2022/01/10 14:36:37;;;;;;;25.50;13.30;;;0.90;99.90;;;;;;5052488;28;20233;-70